createdAt,value
2022-12-18T00:02:17.162Z,25.90
2022-12-18T00:04:54.712Z,24.80
2022-12-18T00:07:25.032Z,25.27
2022-12-18T00:09:56.891Z,25.15
2022-12-18T00:12:30.210Z,26.15
2022-12-18T00:15:03.620Z,25.12
2022-12-18T00:17:34.062Z,27.55
2022-12-18T00:20:05.027Z,27.75
2022-12-18T00:22:36.017Z,28.35
2022-12-18T00:25:19.447Z,28.87
2022-12-18T00:27:49.940Z,29.30
2022-12-18T00:30:28.547Z,30.92
2022-12-18T00:32:59.761Z,32.23
2022-12-18T00:35:31.382Z,32.50
2022-12-18T00:38:07.411Z,31.50
2022-12-18T00:40:39.146Z,33.05
2022-12-18T00:43:09.638Z,32.30
2022-12-18T00:45:40.183Z,32.60
2022-12-18T00:48:16.898Z,33.42
2022-12-18T00:50:47.590Z,32.60
2022-12-18T00:53:20.271Z,31.17
2022-12-18T00:55:50.687Z,32.25
2022-12-18T00:58:29.483Z,31.97
2022-12-18T01:01:00.085Z,33.25
2022-12-18T01:03:30.709Z,32.03
2022-12-18T01:06:07.680Z,31.90
2022-12-18T01:08:38.637Z,31.73
2022-12-18T01:11:24.048Z,30.90
2022-12-18T01:13:56.000Z,31.75
2022-12-18T01:16:26.574Z,32.50
2022-12-18T01:18:57.748Z,31.75
2022-12-18T01:21:33.216Z,30.60
2022-12-18T01:24:05.012Z,32.15
2022-12-18T01:26:35.498Z,31.85
2022-12-18T01:29:06.001Z,33.90
2022-12-18T01:31:43.210Z,31.60
2022-12-18T01:34:13.672Z,32.33
2022-12-18T01:36:44.157Z,32.90
2022-12-18T01:39:17.066Z,32.73
2022-12-18T01:42:05.168Z,32.88
2022-12-18T01:45:02.836Z,32.78
2022-12-18T01:47:57.313Z,29.57
2022-12-18T01:50:40.030Z,31.50
2022-12-18T01:53:23.491Z,30.30
2022-12-18T01:55:57.763Z,30.43
2022-12-18T01:58:46.137Z,29.57
2022-12-18T02:01:17.011Z,28.38
2022-12-18T02:03:53.628Z,27.73
2022-12-18T02:06:33.368Z,28.38
2022-12-18T02:12:04.213Z,25.12
2022-12-18T02:14:48.246Z,25.85
2022-12-18T02:17:34.362Z,24.90
2022-12-18T02:20:22.978Z,25.70
2022-12-18T02:23:14.514Z,24.72
2022-12-18T02:26:03.298Z,26.87
2022-12-18T02:28:36.386Z,27.62
2022-12-18T02:31:31.876Z,28.10
2022-12-18T02:34:05.501Z,28.25
2022-12-18T02:36:38.436Z,27.35
2022-12-18T02:39:13.982Z,29.15
2022-12-18T02:41:45.626Z,29.07
2022-12-18T02:44:16.950Z,29.00
2022-12-18T02:46:55.879Z,29.55
2022-12-18T02:49:45.886Z,30.60
2022-12-18T02:52:28.670Z,31.17
2022-12-18T02:55:42.568Z,31.23
2022-12-18T02:58:31.356Z,30.90
2022-12-18T03:01:07.590Z,30.12
2022-12-18T03:03:43.514Z,31.35
2022-12-18T03:06:16.886Z,31.93
2022-12-18T03:08:50.271Z,33.65
2022-12-18T03:11:48.371Z,33.15
2022-12-18T03:14:23.467Z,32.38
2022-12-18T03:16:59.089Z,31.77
2022-12-18T03:19:34.281Z,32.13
2022-12-18T03:22:07.804Z,29.92
2022-12-18T03:24:47.838Z,31.52
2022-12-18T03:27:21.246Z,29.27
2022-12-18T03:30:09.755Z,27.52
2022-12-18T03:33:12.159Z,26.62
2022-12-18T03:35:45.862Z,27.82
2022-12-18T03:38:22.630Z,27.45
2022-12-18T03:40:56.045Z,27.87
2022-12-18T03:43:39.015Z,28.47
2022-12-18T03:46:25.250Z,26.70
2022-12-18T03:48:58.704Z,28.60
2022-12-18T03:51:42.067Z,27.98
2022-12-18T03:54:13.762Z,29.02
2022-12-18T03:56:47.193Z,29.00
2022-12-18T03:59:22.980Z,28.98
2022-12-18T04:01:56.915Z,29.25
2022-12-18T04:04:40.214Z,28.47
2022-12-18T04:07:11.265Z,29.12
2022-12-18T04:09:43.502Z,28.75
2022-12-18T04:14:57.897Z,29.25
2022-12-18T04:17:31.655Z,30.75
2022-12-18T04:20:02.986Z,31.30
2022-12-18T04:22:33.428Z,32.42
2022-12-18T04:25:05.339Z,31.60
2022-12-18T04:27:35.804Z,32.30
2022-12-18T04:30:13.016Z,32.15
2022-12-18T04:32:47.733Z,31.30
2022-12-18T04:35:15.762Z,29.50
2022-12-18T04:37:52.449Z,30.05
2022-12-18T04:40:22.526Z,29.65
2022-12-18T04:42:53.029Z,28.07
2022-12-18T04:45:24.636Z,27.20
2022-12-18T04:47:55.239Z,27.55
2022-12-18T04:50:31.226Z,26.80
2022-12-18T04:53:01.737Z,26.35
2022-12-18T04:55:32.232Z,26.60
2022-12-18T04:58:02.797Z,27.52
2022-12-18T05:00:38.883Z,27.13
2022-12-18T05:03:09.330Z,26.40
2022-12-18T05:05:40.962Z,25.77
2022-12-18T05:08:11.414Z,26.77
2022-12-18T05:10:47.003Z,26.10
2022-12-18T05:13:17.419Z,19.92
2022-12-18T05:15:50.863Z,27.13
2022-12-18T05:18:22.637Z,27.17
2022-12-18T05:21:17.427Z,27.40
2022-12-18T05:23:48.184Z,27.00
2022-12-18T05:26:20.441Z,27.93
2022-12-18T05:28:50.873Z,28.83
2022-12-18T05:31:29.236Z,27.55
2022-12-18T05:34:00.537Z,26.17
2022-12-18T05:36:31.110Z,26.62
2022-12-18T05:39:10.228Z,25.85
2022-12-18T05:44:06.405Z,28.12
2022-12-18T05:46:37.613Z,26.45
2022-12-18T05:49:08.143Z,27.98
2022-12-18T05:51:47.432Z,25.90
2022-12-18T05:54:17.998Z,26.75
2022-12-18T05:56:49.042Z,25.92
2022-12-18T05:59:27.303Z,26.02
2022-12-18T06:01:54.896Z,25.12
2022-12-18T06:04:25.495Z,24.87
2022-12-18T06:06:56.087Z,22.52
2022-12-18T06:09:26.511Z,23.30
2022-12-18T06:12:02.699Z,23.60
2022-12-18T06:14:34.297Z,24.18
2022-12-18T06:17:04.773Z,23.87
2022-12-18T06:19:35.223Z,24.40
2022-12-18T06:22:14.237Z,24.67
2022-12-18T06:24:44.692Z,26.05
2022-12-18T06:27:15.269Z,24.23
2022-12-18T06:29:46.195Z,25.02
2022-12-18T06:32:21.917Z,25.65
2022-12-18T06:34:54.414Z,25.55
2022-12-18T06:37:36.248Z,26.15
2022-12-18T06:40:08.737Z,26.02
2022-12-18T06:42:39.229Z,24.87
2022-12-18T06:47:46.298Z,25.08
2022-12-18T06:50:16.988Z,24.63
2022-12-18T06:52:47.433Z,25.68
2022-12-18T06:55:18.023Z,23.90
2022-12-18T06:57:54.215Z,23.38
2022-12-18T07:00:25.845Z,25.68
2022-12-18T07:02:57.882Z,23.80
2022-12-18T07:05:29.636Z,24.87
2022-12-18T07:08:01.748Z,24.77
2022-12-18T07:10:32.160Z,27.93
2022-12-18T07:13:02.542Z,28.27
2022-12-18T07:15:33.037Z,26.73
2022-12-18T07:18:04.800Z,24.72
2022-12-18T07:20:35.323Z,24.32
2022-12-18T07:23:07.443Z,25.30
2022-12-18T07:25:38.788Z,24.40
2022-12-18T07:28:12.871Z,25.25
2022-12-18T07:30:41.571Z,27.02
2022-12-18T07:33:12.744Z,25.65
2022-12-18T07:35:43.713Z,26.27
2022-12-18T07:38:14.221Z,26.25
2022-12-18T07:40:44.676Z,26.60
2022-12-18T07:43:15.177Z,26.87
2022-12-18T07:45:46.241Z,27.40
2022-12-18T07:48:16.720Z,30.45
2022-12-18T07:50:47.229Z,31.87
2022-12-18T07:53:17.754Z,32.90
2022-12-18T07:56:24.916Z,33.05
2022-12-18T07:58:20.664Z,33.83
2022-12-18T08:00:53.417Z,35.30
2022-12-18T08:03:23.922Z,35.83
2022-12-18T08:05:54.742Z,34.78
2022-12-18T08:08:25.241Z,33.53
2022-12-18T08:10:56.030Z,32.55
2022-12-18T08:13:27.497Z,33.63
2022-12-18T08:16:06.985Z,32.20
2022-12-18T08:18:39.286Z,34.35
2022-12-18T08:21:19.265Z,36.80
2022-12-18T08:23:53.751Z,38.80
2022-12-18T08:26:25.557Z,39.45
2022-12-18T08:28:58.495Z,38.02
2022-12-18T08:31:30.526Z,36.00
2022-12-18T08:34:02.392Z,36.08
2022-12-18T08:36:32.888Z,35.92
2022-12-18T08:39:03.511Z,36.00
2022-12-18T08:41:34.339Z,35.88
2022-12-18T08:44:22.987Z,37.60
2022-12-18T08:46:53.483Z,37.48
2022-12-18T08:49:23.963Z,37.67
2022-12-18T08:51:58.463Z,40.20
2022-12-18T08:54:30.615Z,39.92
2022-12-18T08:57:01.125Z,40.00
2022-12-18T08:59:31.645Z,43.75
2022-12-18T09:02:02.612Z,42.05
2022-12-18T09:04:33.273Z,48.52
2022-12-18T09:07:03.801Z,47.20
2022-12-18T09:09:34.313Z,46.37
2022-12-18T09:12:04.947Z,43.02
2022-12-18T09:14:35.540Z,41.28
2022-12-18T09:17:06.235Z,38.00
2022-12-18T09:19:36.716Z,40.67
2022-12-18T09:22:07.469Z,46.05
2022-12-18T09:24:38.298Z,48.30
2022-12-18T09:27:10.094Z,47.95
2022-12-18T09:29:41.684Z,50.23
2022-12-18T09:32:15.247Z,47.62
2022-12-18T09:34:44.419Z,43.33
2022-12-18T09:37:16.154Z,44.05
2022-12-18T09:39:47.947Z,42.40
2022-12-18T09:42:25.254Z,41.73
2022-12-18T09:44:56.762Z,44.67
2022-12-18T09:47:39.457Z,46.48
2022-12-18T09:50:24.829Z,52.62
2022-12-18T09:52:58.660Z,51.35
2022-12-18T09:55:38.323Z,51.63
2022-12-18T09:58:20.959Z,50.30
2022-12-18T10:00:54.558Z,51.90
2022-12-18T10:03:25.494Z,53.00
2022-12-18T10:06:23.720Z,51.45
2022-12-18T10:08:57.318Z,48.70
2022-12-18T10:11:45.770Z,53.28
2022-12-18T10:14:39.752Z,48.45
2022-12-18T10:17:49.856Z,48.58
2022-12-18T10:20:35.232Z,46.28
2022-12-18T10:23:17.995Z,48.40
2022-12-18T10:25:51.606Z,46.88
2022-12-18T10:28:23.198Z,47.15
2022-12-18T10:30:55.214Z,46.42
2022-12-18T10:33:28.657Z,44.35
2022-12-18T10:35:59.533Z,44.48
2022-12-18T10:38:33.876Z,46.23
2022-12-18T10:41:07.334Z,47.00
2022-12-18T10:43:40.397Z,46.77
2022-12-18T10:46:15.663Z,46.35
2022-12-18T10:48:52.563Z,44.98
2022-12-18T10:51:40.867Z,43.70
2022-12-18T10:54:41.349Z,44.45
2022-12-18T10:57:43.455Z,42.85
2022-12-18T11:00:31.607Z,45.50
2022-12-18T11:03:02.358Z,45.28
2022-12-18T11:05:35.210Z,44.55
2022-12-18T11:08:06.263Z,46.53
2022-12-18T11:10:40.314Z,49.00
2022-12-18T11:13:25.492Z,46.33
2022-12-18T11:15:56.764Z,56.53
2022-12-18T11:18:30.330Z,56.25
2022-12-18T11:21:03.833Z,52.10
2022-12-18T11:23:35.444Z,51.77
2022-12-18T11:26:07.647Z,47.98
2022-12-18T11:28:42.628Z,48.40
2022-12-18T11:31:29.105Z,49.53
2022-12-18T11:34:27.934Z,51.70
2022-12-18T11:36:49.816Z,55.20
2022-12-18T11:39:43.217Z,53.85
2022-12-18T11:42:42.519Z,53.42
2022-12-18T11:45:21.420Z,54.60
2022-12-18T11:48:14.366Z,55.08
2022-12-18T11:50:56.909Z,52.85
2022-12-18T11:53:29.892Z,52.00
2022-12-18T11:56:24.387Z,48.20
2022-12-18T11:59:00.962Z,48.87
2022-12-18T12:01:43.885Z,52.90
2022-12-18T12:04:39.563Z,48.87
2022-12-18T12:07:14.007Z,49.50
2022-12-18T12:09:54.471Z,51.77
2022-12-18T12:12:38.567Z,51.88
2022-12-18T12:15:27.161Z,51.15
2022-12-18T12:18:08.201Z,52.70
2022-12-18T12:20:50.558Z,48.38
2022-12-18T12:23:44.252Z,48.98
2022-12-18T12:26:32.667Z,49.30
2022-12-18T12:29:29.424Z,49.20
2022-12-18T12:32:25.783Z,52.13
2022-12-18T12:35:30.365Z,48.30
2022-12-18T12:38:16.052Z,46.68
2022-12-18T12:40:54.976Z,45.17
2022-12-18T12:43:30.981Z,46.00
2022-12-18T12:46:05.884Z,45.20
2022-12-18T12:48:44.930Z,44.88
2022-12-18T12:51:27.972Z,42.65
2022-12-18T12:54:01.923Z,42.35
2022-12-18T12:57:01.481Z,42.13
2022-12-18T13:00:05.865Z,46.10
2022-12-18T13:03:11.401Z,45.93
2022-12-18T13:06:02.864Z,45.63
2022-12-18T13:08:37.566Z,42.17
2022-12-18T13:11:32.037Z,45.58
2022-12-18T13:14:02.662Z,45.98
2022-12-18T13:16:33.417Z,44.55
2022-12-18T13:19:04.190Z,44.95
2022-12-18T13:21:37.901Z,45.78
2022-12-18T13:24:31.223Z,45.23
2022-12-18T13:27:01.979Z,45.73
2022-12-18T13:29:47.968Z,44.80
2022-12-18T13:32:28.682Z,47.67
2022-12-18T13:35:21.846Z,45.55
2022-12-18T13:37:57.276Z,45.80
2022-12-18T13:40:46.040Z,34.23
2022-12-18T13:43:23.148Z,45.25
2022-12-18T13:46:24.274Z,44.03
2022-12-18T13:49:07.677Z,42.85
2022-12-18T13:51:42.399Z,42.43
2022-12-18T13:54:34.209Z,41.83
2022-12-18T13:57:06.115Z,38.17
2022-12-18T13:59:42.246Z,37.65
2022-12-18T14:02:21.970Z,39.35
2022-12-18T14:04:54.408Z,41.08
2022-12-18T14:07:29.669Z,40.92
2022-12-18T14:12:55.156Z,41.63
2022-12-18T14:15:31.873Z,40.05
2022-12-18T14:18:12.805Z,39.10
2022-12-18T14:20:52.355Z,39.65
2022-12-18T14:23:39.009Z,39.23
2022-12-18T14:26:30.698Z,41.40
2022-12-18T14:29:03.807Z,42.93
2022-12-18T14:31:34.328Z,45.12
2022-12-18T14:34:05.147Z,43.00
2022-12-18T14:36:37.004Z,40.50
2022-12-18T14:39:07.605Z,39.00
2022-12-18T14:41:39.309Z,41.00
2022-12-18T14:44:12.809Z,42.78
2022-12-18T14:46:45.637Z,47.10
2022-12-18T14:49:31.475Z,43.35
2022-12-18T14:52:09.333Z,42.90
2022-12-18T14:54:43.464Z,40.45
2022-12-18T14:57:41.874Z,41.33
2022-12-18T15:00:23.344Z,42.73
2022-12-18T15:03:03.481Z,39.67
2022-12-18T15:05:37.943Z,41.53
2022-12-18T15:08:20.844Z,42.13
2022-12-18T15:10:53.574Z,44.83
2022-12-18T15:13:27.461Z,46.83
2022-12-18T15:16:07.703Z,49.13
2022-12-18T15:18:42.874Z,49.23
2022-12-18T15:21:34.187Z,46.75
2022-12-18T15:24:07.478Z,47.60
2022-12-18T15:26:41.177Z,47.23
2022-12-18T15:29:28.718Z,44.80
2022-12-18T15:32:09.320Z,40.35
2022-12-18T15:34:41.637Z,41.63
2022-12-18T15:37:15.067Z,42.80
2022-12-18T15:39:48.327Z,41.37
2022-12-18T15:42:41.096Z,45.10
2022-12-18T15:45:31.179Z,45.90
2022-12-18T15:48:25.452Z,41.10
2022-12-18T15:50:59.672Z,42.53
2022-12-18T15:53:35.568Z,41.37
2022-12-18T15:56:27.408Z,43.05
2022-12-18T15:59:18.922Z,42.60
2022-12-18T16:01:55.963Z,43.08
2022-12-18T16:04:29.164Z,45.48
2022-12-18T16:07:14.827Z,42.25
2022-12-18T16:12:35.277Z,38.35
2022-12-18T16:15:09.032Z,40.58
2022-12-18T16:17:59.960Z,39.53
2022-12-18T16:20:32.152Z,41.23
2022-12-18T16:23:07.658Z,47.53
2022-12-18T16:25:41.381Z,42.95
2022-12-18T16:28:15.158Z,42.23
2022-12-18T16:30:49.611Z,41.05
2022-12-18T16:33:24.548Z,41.92
2022-12-18T16:36:01.133Z,41.18
2022-12-18T16:38:32.442Z,41.10
2022-12-18T16:41:36.550Z,39.65
2022-12-18T16:44:12.819Z,39.30
2022-12-18T16:46:51.903Z,39.67
2022-12-18T16:49:25.171Z,40.30
2022-12-18T16:52:02.431Z,41.25
2022-12-18T16:54:38.006Z,42.65
2022-12-18T16:57:16.875Z,42.45
2022-12-18T16:59:51.332Z,43.48
2022-12-18T17:02:26.550Z,41.80
2022-12-18T17:05:03.676Z,42.30
2022-12-18T17:07:36.919Z,40.88
2022-12-18T17:10:13.527Z,41.37
2022-12-18T17:12:45.907Z,45.12
2022-12-18T17:15:16.548Z,47.62
2022-12-18T17:17:47.729Z,45.05
2022-12-18T17:20:19.529Z,44.33
2022-12-18T17:22:50.365Z,44.05
2022-12-18T17:25:20.957Z,43.50
2022-12-18T17:27:52.704Z,45.38
2022-12-18T17:30:24.698Z,45.05
2022-12-18T17:32:55.315Z,49.67
2022-12-18T17:35:26.996Z,50.38
2022-12-18T17:37:57.552Z,50.10
2022-12-18T17:40:28.108Z,47.50
2022-12-18T17:43:00.219Z,48.25
2022-12-18T17:45:31.207Z,55.20
2022-12-18T17:48:03.568Z,52.03
2022-12-18T17:50:38.251Z,55.08
2022-12-18T17:53:08.835Z,54.27
2022-12-18T17:55:39.464Z,52.73
2022-12-18T17:58:11.227Z,55.00
2022-12-18T18:00:42.548Z,54.85
2022-12-18T18:03:13.319Z,54.90
2022-12-18T18:05:44.257Z,57.60
2022-12-18T18:08:14.872Z,55.15
2022-12-18T18:10:45.445Z,55.70
2022-12-18T18:13:46.608Z,54.50
2022-12-18T18:16:15.248Z,53.60
2022-12-18T18:18:47.089Z,55.08
2022-12-18T18:21:17.614Z,50.73
2022-12-18T18:23:49.203Z,52.17
2022-12-18T18:26:22.357Z,56.37
2022-12-18T18:28:56.062Z,59.05
2022-12-18T18:31:28.065Z,64.77
2022-12-18T18:33:59.318Z,62.30
2022-12-18T18:36:30.299Z,60.67
2022-12-18T18:39:02.671Z,57.05
2022-12-18T18:41:34.490Z,59.20
2022-12-18T18:44:05.290Z,56.65
2022-12-18T18:46:35.841Z,54.05
2022-12-18T18:49:06.612Z,54.00
2022-12-18T18:51:37.251Z,54.77
2022-12-18T18:54:07.794Z,55.35
2022-12-18T18:57:03.778Z,52.78
2022-12-18T18:59:11.727Z,54.15
2022-12-18T19:01:44.795Z,57.13
2022-12-18T19:04:15.529Z,51.37
2022-12-18T19:06:47.707Z,50.43
2022-12-18T19:09:20.426Z,50.23
2022-12-18T19:12:11.431Z,51.98
2022-12-18T19:14:42.014Z,51.15
2022-12-18T19:17:12.656Z,54.25
2022-12-18T19:19:44.759Z,54.93
2022-12-18T19:22:15.285Z,55.10
2022-12-18T19:24:46.318Z,52.60
2022-12-18T19:27:16.850Z,53.85
2022-12-18T19:29:47.388Z,53.20
2022-12-18T19:32:18.040Z,53.28
2022-12-18T19:34:48.614Z,52.27
2022-12-18T19:37:20.245Z,50.90
2022-12-18T19:39:50.981Z,49.53
2022-12-18T19:42:28.136Z,50.45
2022-12-18T19:44:55.054Z,50.45
2022-12-18T19:47:25.686Z,50.03
2022-12-18T19:49:58.924Z,52.17
2022-12-18T19:52:30.731Z,51.95
2022-12-18T19:55:02.542Z,50.35
2022-12-18T19:57:33.732Z,50.20
2022-12-18T20:00:05.562Z,48.15
2022-12-18T20:02:37.095Z,50.08
2022-12-18T20:05:11.171Z,50.63
2022-12-18T20:07:42.173Z,48.70
2022-12-18T20:10:16.002Z,48.70
2022-12-18T20:15:19.515Z,49.35
2022-12-18T20:17:50.143Z,50.20
2022-12-18T20:20:22.155Z,51.83
2022-12-18T20:22:53.117Z,49.48
2022-12-18T20:25:23.719Z,48.35
2022-12-18T20:27:55.473Z,50.98
2022-12-18T20:30:26.075Z,48.95
2022-12-18T20:32:57.893Z,48.65
2022-12-18T20:35:30.137Z,47.48
2022-12-18T20:38:00.789Z,47.13
2022-12-18T20:40:31.856Z,48.08
2022-12-18T20:43:02.942Z,48.30
2022-12-18T20:45:34.789Z,52.25
2022-12-18T20:48:06.358Z,49.00
2022-12-18T20:50:36.981Z,47.65
2022-12-18T20:53:07.497Z,45.58
2022-12-18T20:55:40.918Z,46.18
2022-12-18T20:58:12.782Z,46.33
2022-12-18T21:00:44.524Z,45.80
2022-12-18T21:03:15.294Z,50.10
2022-12-18T21:05:45.999Z,49.23
2022-12-18T21:08:16.620Z,50.40
2022-12-18T21:10:47.266Z,48.10
2022-12-18T21:13:18.095Z,46.70
2022-12-18T21:15:50.323Z,44.50
2022-12-18T21:18:20.935Z,43.45
2022-12-18T21:20:51.517Z,44.42
2022-12-18T21:23:23.234Z,44.25
2022-12-18T21:26:01.030Z,42.93
2022-12-18T21:28:31.754Z,44.10
2022-12-18T21:31:04.013Z,44.70
2022-12-18T21:33:34.603Z,44.13
2022-12-18T21:36:09.839Z,40.00
2022-12-18T21:38:40.476Z,40.28
2022-12-18T21:41:31.177Z,42.08
2022-12-18T21:44:09.237Z,41.25
2022-12-18T21:46:42.517Z,40.60
2022-12-18T21:49:17.760Z,38.08
2022-12-18T21:51:49.725Z,37.15
2022-12-18T21:54:20.864Z,38.63
2022-12-18T21:56:56.882Z,36.10
2022-12-18T21:59:36.782Z,37.03
2022-12-18T22:02:10.394Z,39.35
2022-12-18T22:04:41.252Z,41.25
2022-12-18T22:07:12.754Z,41.50
2022-12-18T22:09:44.061Z,40.88
2022-12-18T22:12:17.556Z,39.70
2022-12-18T22:14:48.158Z,38.55
2022-12-18T22:17:18.752Z,40.00
2022-12-18T22:19:50.562Z,40.33
2022-12-18T22:22:22.591Z,42.15
2022-12-18T22:24:54.161Z,39.10
2022-12-18T22:27:24.645Z,39.60
2022-12-18T22:30:05.499Z,37.88
2022-12-18T22:32:37.994Z,40.05
2022-12-18T22:35:15.413Z,41.25
2022-12-18T22:37:41.797Z,40.58
2022-12-18T22:40:25.500Z,39.25
2022-12-18T22:42:56.638Z,38.15
2022-12-18T22:45:28.202Z,40.67
2022-12-18T22:48:00.413Z,39.60
2022-12-18T22:50:30.946Z,39.33
2022-12-18T22:53:01.497Z,39.15
2022-12-18T22:55:31.998Z,37.33
2022-12-18T22:58:03.660Z,36.20
2022-12-18T23:00:37.071Z,35.30
2022-12-18T23:03:07.783Z,35.68
2022-12-18T23:05:38.403Z,35.17
2022-12-18T23:08:09.456Z,34.25
2022-12-18T23:10:40.370Z,33.45
2022-12-18T23:13:11.023Z,35.52
2022-12-18T23:15:44.483Z,35.83
2022-12-18T23:18:15.504Z,36.70
2022-12-18T23:20:47.402Z,35.95
2022-12-18T23:23:19.228Z,36.73
2022-12-18T23:25:51.003Z,37.13
2022-12-18T23:28:22.758Z,37.63
2022-12-18T23:30:54.528Z,38.40
2022-12-18T23:33:25.172Z,39.70
2022-12-18T23:35:55.847Z,37.53
2022-12-18T23:38:29.528Z,41.65
2022-12-18T23:41:00.542Z,42.70
2022-12-18T23:43:31.070Z,41.68
2022-12-18T23:46:02.912Z,40.85
2022-12-18T23:48:34.687Z,42.43
2022-12-18T23:51:10.593Z,41.45
2022-12-18T23:53:41.530Z,41.42
2022-12-18T23:56:14.360Z,38.80
2022-12-18T23:58:46.217Z,38.20
